Terminal Aerodrome Forecast
Issued by NWS Albuquerque, NM

Home | Current Version | Previous Version | Text Only | Print | Product List | Glossary On
Versions: 1 2 3 4 5 6 7 8 9 10 11 12 13
000
FTUS45 KABQ 311131
TAFABQ
TAF
KABQ 311131Z 3112/0112 08008KT P6SM SCT120 SCT200
     FM311800 11010KT P6SM FEW070
     FM312100 12010G16KT P6SM VCTS SCT070CB BKN120
     FM312300 10016G26KT P6SM VCSH SCT070 BKN150
     FM010500 08012KT P6SM FEW070 BKN150=

USA.gov is the U.S. government's official web portal to all federal, state and local government web resources and services.